Tamarack — D5EY8 — position and weather

sailwx.info

Track history (hours):
 
Tides and Currents Weather Stations Pressure Air Temp Water Temp Dewpoint Dewpoint Depression Visibility Wind Speed Wind Dir Waves Ship Positions

Tamarack

Last reported at 2018-Jun-10 06:18 UTC. Time now 2018-Jun-18 03:50 UTC.
Position N 27°43' W 015°16'.

Length 189 m; draft 11.3 m.

Type: Cargo ship. MMSI: 636016198.

Date/timePositionNaut miles runAvg speedWind from/ knotsBaromVisibWave heightAir tempDewpointWater temp
2018-Jun-10 06:18N 27°43' W 015°16'413.7
2018-Jun-10 06:00N 27°46' W 015°15'713.6
2018-Jun-10 05:30N 27°53' W 015°14'713.3
2018-Jun-10 05:00N 27°60' W 015°14'612.5
2018-Jun-10 04:30N 28°04' W 015°19'5 9.3
2018-Jun-10 04:00N 28°07' W 015°24'0 0.6
2018-Jun-10 03:30N 28°06' W 015°24'0 0.0
2018-Jun-10 03:00N 28°06' W 015°24'0 0.0
2018-Jun-10 02:30N 28°06' W 015°24'0 0.0
2018-Jun-10 02:00N 28°06' W 015°24'0 0.0
2018-Jun-10 01:30N 28°06' W 015°24'0 0.0
2018-Jun-10 01:00N 28°06' W 015°24'0 0.1
2018-Jun-10 00:30N 28°06' W 015°24'0 0.1
2018-Jun-10 00:00N 28°06' W 015°24'0 0.0
2018-Jun-09 23:30N 28°06' W 015°24'0 0.1
2018-Jun-09 23:00N 28°06' W 015°24'0 0.0
2018-Jun-09 22:27N 28°06' W 015°24'0 0.0
2018-Jun-09 22:00N 28°06' W 015°24'0 0.0
2018-Jun-09 21:30N 28°06' W 015°24'0 0.0
2018-Jun-09 21:00N 28°06' W 015°24'0 0.0
2018-Jun-09 20:30N 28°06' W 015°24'0 0.1
2018-Jun-09 20:00N 28°06' W 015°24'1 1.7
2018-Jun-09 19:30N 28°07' W 015°23'1 1.4
2018-Jun-09 19:00N 28°07' W 015°23'1 1.4
2018-Jun-09 18:30N 28°07' W 015°22'611.2
2018-Jun-09 18:00N 28°09' W 015°16'713.2
2018-Jun-09 17:30N 28°12' W 015°09'713.3
2018-Jun-09 17:00N 28°16' W 015°03'713.2
2018-Jun-09 16:30N 28°19' W 014°56'613.1
2018-Jun-09 16:00N 28°25' W 014°53'713.3
2018-Jun-09 15:30N 28°30' W 014°49'64812.7
2018-Jun-07 12:30N 35°57' W 005°34'510.5
2018-Jun-07 12:00N 35°59' W 005°28'510.9
2018-Jun-07 11:30N 36°01' W 005°22'510.2
2018-Jun-07 11:01N 36°02' W 005°16'  
2018-Jun-04 08:15N 36°45' E 013°26'412.6
2018-Jun-04 07:58N 36°44' E 013°30'612.8
2018-Jun-04 07:29N 36°42' E 013°38'712.8
2018-Jun-04 06:58N 36°40' E 013°46'613.0
2018-Jun-04 06:30N 36°38' E 013°53'713.2
2018-Jun-04 06:00N 36°36' E 014°01'713.2
2018-Jun-04 05:30N 36°34' E 014°08'713.2
2018-Jun-04 05:00N 36°33' E 014°16'48510.9
2018-Jun-02 08:23N 37°50' E 024°18'4413.1
2018-Jun-02 05:00N 38°24' E 024°52'265 8.0
2018-May-31 19:51N 41°24' E 029°06'1 1.5
2018-May-31 19:30N 41°24' E 029°06'3 2.1
2018-May-31 17:58N 41°27' E 029°04'612.7
2018-May-31 17:31N 41°33' E 029°02'612.8
2018-May-31 17:00N 41°38' E 028°56'612.8
2018-May-31 16:31N 41°43' E 028°51'712.7
2018-May-31 15:58N 41°48' E 028°45'612.7
2018-May-31 15:28N 41°53' E 028°40'  
Track history (hours):
 
Tides and Currents Weather Stations Pressure Air Temp Water Temp Dewpoint Dewpoint Depression Visibility Wind Speed Wind Dir Waves Ship Positions

Tamarack

Last reported at 2018-Jun-10 06:18 UTC. Time now 2018-Jun-18 03:50 UTC.
Position N 27°43' W 015°16'.

Length 189 m; draft 11.3 m.

Type: Cargo ship. MMSI: 636016198.

Date/timePositionNaut miles runAvg speedWind from/ knotsBaromVisibWave heightAir tempDewpointWater temp
2018-Jun-10 06:18N 27°43' W 015°16'413.7
2018-Jun-10 06:00N 27°46' W 015°15'713.6
2018-Jun-10 05:30N 27°53' W 015°14'713.3
2018-Jun-10 05:00N 27°60' W 015°14'612.5
2018-Jun-10 04:30N 28°04' W 015°19'5 9.3
2018-Jun-10 04:00N 28°07' W 015°24'0 0.6
2018-Jun-10 03:30N 28°06' W 015°24'0 0.0
2018-Jun-10 03:00N 28°06' W 015°24'0 0.0
2018-Jun-10 02:30N 28°06' W 015°24'0 0.0
2018-Jun-10 02:00N 28°06' W 015°24'0 0.0
2018-Jun-10 01:30N 28°06' W 015°24'0 0.0
2018-Jun-10 01:00N 28°06' W 015°24'0 0.1
2018-Jun-10 00:30N 28°06' W 015°24'0 0.1
2018-Jun-10 00:00N 28°06' W 015°24'0 0.0
2018-Jun-09 23:30N 28°06' W 015°24'0 0.1
2018-Jun-09 23:00N 28°06' W 015°24'0 0.0
2018-Jun-09 22:27N 28°06' W 015°24'0 0.0
2018-Jun-09 22:00N 28°06' W 015°24'0 0.0
2018-Jun-09 21:30N 28°06' W 015°24'0 0.0
2018-Jun-09 21:00N 28°06' W 015°24'0 0.0
2018-Jun-09 20:30N 28°06' W 015°24'0 0.1
2018-Jun-09 20:00N 28°06' W 015°24'1 1.7
2018-Jun-09 19:30N 28°07' W 015°23'1 1.4
2018-Jun-09 19:00N 28°07' W 015°23'1 1.4
2018-Jun-09 18:30N 28°07' W 015°22'611.2
2018-Jun-09 18:00N 28°09' W 015°16'713.2
2018-Jun-09 17:30N 28°12' W 015°09'713.3
2018-Jun-09 17:00N 28°16' W 015°03'713.2
2018-Jun-09 16:30N 28°19' W 014°56'613.1
2018-Jun-09 16:00N 28°25' W 014°53'713.3
2018-Jun-09 15:30N 28°30' W 014°49'64812.7
2018-Jun-07 12:30N 35°57' W 005°34'510.5
2018-Jun-07 12:00N 35°59' W 005°28'510.9
2018-Jun-07 11:30N 36°01' W 005°22'510.2
2018-Jun-07 11:01N 36°02' W 005°16'  
2018-Jun-04 08:15N 36°45' E 013°26'412.6
2018-Jun-04 07:58N 36°44' E 013°30'612.8
2018-Jun-04 07:29N 36°42' E 013°38'712.8
2018-Jun-04 06:58N 36°40' E 013°46'613.0
2018-Jun-04 06:30N 36°38' E 013°53'713.2
2018-Jun-04 06:00N 36°36' E 014°01'713.2
2018-Jun-04 05:30N 36°34' E 014°08'713.2
2018-Jun-04 05:00N 36°33' E 014°16'48510.9
2018-Jun-02 08:23N 37°50' E 024°18'4413.1
2018-Jun-02 05:00N 38°24' E 024°52'265 8.0
2018-May-31 19:51N 41°24' E 029°06'1 1.5
2018-May-31 19:30N 41°24' E 029°06'3 2.1
2018-May-31 17:58N 41°27' E 029°04'612.7
2018-May-31 17:31N 41°33' E 029°02'612.8
2018-May-31 17:00N 41°38' E 028°56'612.8
2018-May-31 16:31N 41°43' E 028°51'712.7
2018-May-31 15:58N 41°48' E 028°45'612.7
2018-May-31 15:28N 41°53' E 028°40'  

Dump ship's entire track history